createdAt,value
2023-02-18T00:01:41.778Z,16.40
2023-02-18T00:04:10.941Z,16.40
2023-02-18T00:06:39.134Z,16.40
2023-02-18T00:09:08.953Z,16.40
2023-02-18T00:11:38.821Z,16.40
2023-02-18T00:14:11.715Z,16.40
2023-02-18T00:16:41.772Z,16.40
2023-02-18T00:19:15.713Z,16.40
2023-02-18T00:21:44.595Z,16.40
2023-02-18T00:24:16.427Z,16.30
2023-02-18T00:26:45.416Z,16.40
2023-02-18T00:29:13.620Z,16.30
2023-02-18T00:31:44.915Z,16.30
2023-02-18T00:34:14.542Z,16.30
2023-02-18T00:36:43.140Z,16.30
2023-02-18T00:39:13.371Z,16.30
2023-02-18T00:41:42.909Z,16.30
2023-02-18T00:44:11.875Z,16.30
2023-02-18T00:46:40.591Z,16.30
2023-02-18T00:49:10.719Z,16.30
2023-02-18T00:51:38.624Z,16.30
2023-02-18T00:54:06.736Z,16.30
2023-02-18T00:56:34.741Z,16.30
2023-02-18T00:59:02.878Z,16.30
2023-02-18T01:01:30.926Z,16.30
2023-02-18T01:03:58.866Z,16.30
2023-02-18T01:06:28.102Z,16.20
2023-02-18T01:08:56.074Z,16.20
2023-02-18T01:11:23.990Z,16.20
2023-02-18T01:13:52.236Z,16.20
2023-02-18T01:16:20.439Z,16.20
2023-02-18T01:18:48.505Z,16.20
2023-02-18T01:21:16.915Z,16.20
2023-02-18T01:23:46.577Z,16.20
2023-02-18T01:26:17.091Z,16.20
2023-02-18T01:28:45.019Z,16.20
2023-02-18T01:31:15.334Z,16.20
2023-02-18T01:33:44.154Z,16.20
2023-02-18T01:36:12.756Z,16.20
2023-02-18T01:38:41.420Z,16.20
2023-02-18T01:41:11.441Z,16.20
2023-02-18T01:43:40.348Z,16.20
2023-02-18T01:46:18.762Z,16.10
2023-02-18T01:48:52.834Z,16.10
2023-02-18T01:51:26.996Z,16.10
2023-02-18T01:54:00.242Z,16.10
2023-02-18T01:56:36.141Z,16.10
2023-02-18T01:59:10.134Z,16.10
2023-02-18T02:01:39.560Z,16.10
2023-02-18T02:04:09.502Z,16.10
2023-02-18T02:06:37.722Z,16.10
2023-02-18T02:09:10.853Z,16.10
2023-02-18T02:12:08.597Z,16.10
2023-02-18T02:14:58.571Z,16.00
2023-02-18T02:17:39.299Z,16.10
2023-02-18T02:20:49.617Z,16.00
2023-02-18T02:24:05.698Z,16.00
2023-02-18T02:27:18.941Z,15.90
2023-02-18T02:30:32.288Z,15.90
2023-02-18T02:33:28.865Z,15.90
2023-02-18T02:36:06.878Z,15.90
2023-02-18T02:38:45.109Z,15.90
2023-02-18T02:41:28.764Z,15.90
2023-02-18T02:44:13.030Z,15.90
2023-02-18T02:46:46.911Z,15.90
2023-02-18T02:49:29.665Z,15.90
2023-02-18T02:52:05.881Z,15.90
2023-02-18T02:54:33.947Z,15.90
2023-02-18T02:57:10.856Z,15.90
2023-02-18T02:59:50.334Z,15.90
2023-02-18T03:02:31.649Z,15.90
2023-02-18T03:05:19.028Z,15.90
2023-02-18T03:08:31.272Z,15.90
2023-02-18T03:11:07.548Z,15.80
2023-02-18T03:13:57.369Z,15.80
2023-02-18T03:16:43.847Z,15.90
2023-02-18T03:19:18.439Z,15.90
2023-02-18T03:21:57.710Z,15.90
2023-02-18T03:24:33.041Z,15.80
2023-02-18T03:27:09.283Z,15.90
2023-02-18T03:29:39.016Z,15.90
2023-02-18T03:32:11.450Z,15.90
2023-02-18T03:34:45.183Z,15.90
2023-02-18T03:37:16.367Z,15.90
2023-02-18T03:39:53.466Z,15.90
2023-02-18T03:42:26.768Z,15.90
2023-02-18T03:44:54.725Z,15.90
2023-02-18T03:47:25.543Z,15.90
2023-02-18T03:49:53.406Z,15.90
2023-02-18T03:52:21.513Z,15.90
2023-02-18T03:54:52.427Z,15.90
2023-02-18T03:57:20.320Z,15.90
2023-02-18T03:59:48.147Z,15.90
2023-02-18T04:02:15.984Z,15.90
2023-02-18T04:04:43.833Z,15.90
2023-02-18T04:07:11.845Z,15.80
2023-02-18T04:09:39.676Z,15.80
2023-02-18T04:12:09.217Z,15.80
2023-02-18T04:14:37.147Z,15.80
2023-02-18T04:17:05.199Z,15.80
2023-02-18T04:19:33.064Z,15.80
2023-02-18T04:22:01.096Z,15.80
2023-02-18T04:24:28.951Z,15.80
2023-02-18T04:26:56.879Z,15.80
2023-02-18T04:29:26.128Z,15.80
2023-02-18T04:31:54.041Z,15.80
2023-02-18T04:34:21.984Z,15.80
2023-02-18T04:36:49.885Z,15.80
2023-02-18T04:39:17.754Z,15.80
2023-02-18T04:41:45.616Z,15.80
2023-02-18T04:44:13.484Z,15.80
2023-02-18T04:46:42.712Z,15.80
2023-02-18T04:49:10.597Z,15.80
2023-02-18T04:51:38.501Z,15.80
2023-02-18T04:54:06.634Z,15.80
2023-02-18T04:56:34.497Z,15.80
2023-02-18T04:59:02.342Z,15.80
2023-02-18T05:01:30.302Z,15.80
2023-02-18T05:03:59.541Z,15.80
2023-02-18T05:06:27.484Z,15.80
2023-02-18T05:08:55.489Z,15.80
2023-02-18T05:11:23.346Z,15.80
2023-02-18T05:13:51.256Z,15.80
2023-02-18T05:16:19.146Z,15.80
2023-02-18T05:18:46.965Z,15.80
2023-02-18T05:21:16.209Z,15.80
2023-02-18T05:23:44.071Z,15.80
2023-02-18T05:26:12.225Z,15.80
2023-02-18T05:28:40.107Z,15.80
2023-02-18T05:31:08.193Z,15.80
2023-02-18T05:33:36.132Z,15.80
2023-02-18T05:36:04.471Z,15.80
2023-02-18T05:38:33.622Z,15.80
2023-02-18T05:41:01.528Z,15.80
2023-02-18T05:43:29.388Z,15.80
2023-02-18T05:45:57.229Z,15.80
2023-02-18T05:48:25.071Z,15.80
2023-02-18T05:50:55.483Z,15.70
2023-02-18T05:53:23.348Z,15.80
2023-02-18T05:55:52.530Z,15.70
2023-02-18T05:58:20.501Z,15.70
2023-02-18T06:00:48.322Z,15.70
2023-02-18T06:03:16.305Z,15.70
2023-02-18T06:05:44.145Z,15.70
2023-02-18T06:08:12.020Z,15.70
2023-02-18T06:10:41.853Z,15.70
2023-02-18T06:13:11.098Z,15.70
2023-02-18T06:15:39.675Z,15.70
2023-02-18T06:18:08.356Z,15.70
2023-02-18T06:20:36.289Z,15.70
2023-02-18T06:23:04.220Z,15.70
2023-02-18T06:25:32.148Z,15.70
2023-02-18T06:28:00.017Z,15.70
2023-02-18T06:30:29.318Z,15.70
2023-02-18T06:32:57.181Z,15.70
2023-02-18T06:35:25.115Z,15.70
2023-02-18T06:37:53.083Z,15.70
2023-02-18T06:40:20.920Z,15.70
2023-02-18T06:42:48.766Z,15.70
2023-02-18T06:45:16.812Z,15.70
2023-02-18T06:47:46.032Z,15.70
2023-02-18T06:50:14.219Z,15.70
2023-02-18T06:52:42.077Z,15.80
2023-02-18T06:55:10.639Z,15.70
2023-02-18T06:57:38.498Z,15.80
2023-02-18T07:00:08.482Z,15.70
2023-02-18T07:02:36.313Z,15.80
2023-02-18T07:05:05.974Z,15.80
2023-02-18T07:07:33.849Z,15.70
2023-02-18T07:10:01.739Z,15.80
2023-02-18T07:12:29.590Z,15.80
2023-02-18T07:14:57.465Z,15.80
2023-02-18T07:17:25.519Z,15.80
2023-02-18T07:19:53.415Z,15.80
2023-02-18T07:22:23.147Z,15.80
2023-02-18T07:24:53.018Z,15.80
2023-02-18T07:27:21.637Z,15.80
2023-02-18T07:29:50.004Z,15.80
2023-02-18T07:32:20.604Z,15.80
2023-02-18T07:34:48.505Z,15.80
2023-02-18T07:37:16.401Z,15.80
2023-02-18T07:39:46.143Z,15.80
2023-02-18T07:42:14.993Z,15.80
2023-02-18T07:44:43.507Z,15.80
2023-02-18T07:47:17.211Z,15.80
2023-02-18T07:49:45.326Z,15.80
2023-02-18T07:52:13.728Z,15.80
2023-02-18T07:54:41.782Z,15.80
2023-02-18T07:57:11.048Z,15.80
2023-02-18T07:59:38.932Z,15.80
2023-02-18T08:02:07.643Z,15.80
2023-02-18T08:04:35.885Z,15.80
2023-02-18T08:07:03.763Z,15.80
2023-02-18T08:09:31.627Z,15.80
2023-02-18T08:11:59.522Z,15.80
2023-02-18T08:14:28.727Z,15.80
2023-02-18T08:16:56.861Z,15.80
2023-02-18T08:19:24.744Z,15.80
2023-02-18T08:21:52.732Z,15.80
2023-02-18T08:24:20.663Z,15.80
2023-02-18T08:26:59.833Z,15.80
2023-02-18T08:29:31.000Z,15.80
2023-02-18T08:31:59.537Z,15.80
2023-02-18T08:34:27.665Z,15.80
2023-02-18T08:36:55.581Z,15.80
2023-02-18T08:39:23.413Z,15.80
2023-02-18T08:41:51.259Z,15.90
2023-02-18T08:44:19.071Z,15.90
2023-02-18T08:46:49.432Z,15.90
2023-02-18T08:49:20.787Z,15.90
2023-02-18T08:51:49.368Z,15.90
2023-02-18T08:54:17.620Z,15.90
2023-02-18T08:56:46.585Z,15.90
2023-02-18T08:59:14.486Z,15.90
2023-02-18T09:01:42.649Z,15.90
2023-02-18T09:04:11.881Z,15.90
2023-02-18T09:06:40.174Z,15.90
2023-02-18T09:09:08.161Z,15.90
2023-02-18T09:11:36.129Z,16.00
2023-02-18T09:14:04.025Z,16.00
2023-02-18T09:16:32.040Z,16.00
2023-02-18T09:18:59.975Z,16.00
2023-02-18T09:21:29.627Z,16.00
2023-02-18T09:23:58.339Z,16.00
2023-02-18T09:26:27.331Z,16.00
2023-02-18T09:28:57.944Z,16.00
2023-02-18T09:31:28.260Z,16.00
2023-02-18T09:34:02.693Z,16.00
2023-02-18T09:36:32.893Z,16.00
2023-02-18T09:39:00.884Z,16.10
2023-02-18T09:41:40.341Z,16.00
2023-02-18T09:44:17.372Z,16.00
2023-02-18T09:46:52.890Z,16.10
2023-02-18T09:49:26.057Z,16.10
2023-02-18T09:51:57.355Z,16.10
2023-02-18T09:54:25.217Z,16.10
2023-02-18T09:56:54.694Z,16.10
2023-02-18T09:59:26.509Z,16.10
2023-02-18T10:01:57.061Z,16.20
2023-02-18T10:04:35.331Z,16.10
2023-02-18T10:07:06.618Z,16.10
2023-02-18T10:09:37.291Z,16.20
2023-02-18T10:12:16.372Z,16.10
2023-02-18T10:14:54.237Z,16.20
2023-02-18T10:17:25.009Z,16.20
2023-02-18T10:19:56.440Z,16.20
2023-02-18T10:22:28.456Z,16.20
2023-02-18T10:25:00.754Z,16.20
2023-02-18T10:27:31.611Z,16.20
2023-02-18T10:30:20.001Z,16.20
2023-02-18T10:32:50.038Z,16.20
2023-02-18T10:35:25.528Z,16.20
2023-02-18T10:38:10.574Z,16.20
2023-02-18T10:40:55.721Z,16.20
2023-02-18T10:43:37.114Z,16.20
2023-02-18T10:46:18.254Z,16.20
2023-02-18T10:49:05.549Z,16.20
2023-02-18T10:51:38.359Z,16.30
2023-02-18T10:54:08.931Z,16.30
2023-02-18T10:56:43.775Z,16.30
2023-02-18T10:59:21.299Z,16.30
2023-02-18T11:01:57.778Z,16.30
2023-02-18T11:04:35.077Z,16.30
2023-02-18T11:07:09.214Z,16.30
2023-02-18T11:09:47.526Z,16.30
2023-02-18T11:12:21.333Z,16.40
2023-02-18T11:15:04.902Z,16.40
2023-02-18T11:17:37.301Z,16.40
2023-02-18T11:20:27.256Z,16.40
2023-02-18T11:23:13.671Z,16.40
2023-02-18T11:25:56.278Z,16.40
2023-02-18T11:28:43.708Z,16.40
2023-02-18T11:31:20.839Z,16.40
2023-02-18T11:33:53.962Z,16.40
2023-02-18T11:36:28.865Z,16.40
2023-02-18T11:38:59.258Z,16.40
2023-02-18T11:41:41.666Z,16.40
2023-02-18T11:44:23.034Z,16.40
2023-02-18T11:47:04.164Z,16.40
2023-02-18T11:49:34.694Z,16.50
2023-02-18T11:52:17.832Z,16.40
2023-02-18T11:55:02.706Z,16.40
2023-02-18T11:57:33.426Z,16.50
2023-02-18T12:00:02.298Z,16.50
2023-02-18T12:02:41.404Z,16.50
2023-02-18T12:05:19.188Z,16.50
2023-02-18T12:07:50.344Z,16.50
2023-02-18T12:10:28.517Z,16.50
2023-02-18T12:13:07.478Z,16.50
2023-02-18T12:15:57.404Z,16.50
2023-02-18T12:18:57.572Z,16.50
2023-02-18T12:21:50.668Z,16.50
2023-02-18T12:24:45.310Z,16.50
2023-02-18T12:27:25.021Z,16.50
2023-02-18T12:30:26.633Z,16.50
2023-02-18T12:33:08.818Z,16.50
2023-02-18T12:36:01.170Z,16.50
2023-02-18T12:38:56.278Z,16.50
2023-02-18T12:41:54.703Z,16.50
2023-02-18T12:44:45.141Z,16.50
2023-02-18T12:47:48.808Z,16.50
2023-02-18T12:50:55.618Z,16.50
2023-02-18T12:53:50.532Z,16.50
2023-02-18T12:57:08.219Z,16.40
2023-02-18T13:00:34.927Z,16.40
2023-02-18T13:03:56.170Z,16.40
2023-02-18T13:06:57.364Z,16.40
2023-02-18T13:09:44.996Z,16.40
2023-02-18T13:12:23.900Z,16.40
2023-02-18T13:15:00.375Z,16.40
2023-02-18T13:17:36.361Z,16.40
2023-02-18T13:20:15.366Z,16.50
2023-02-18T13:22:43.888Z,16.50
2023-02-18T13:25:14.977Z,16.50
2023-02-18T13:27:51.740Z,16.50
2023-02-18T13:30:27.619Z,16.50
2023-02-18T13:33:09.217Z,16.50
2023-02-18T13:35:44.194Z,16.50
2023-02-18T13:38:59.526Z,16.50
2023-02-18T13:41:28.333Z,16.50
2023-02-18T13:43:56.265Z,16.50
2023-02-18T13:46:25.716Z,16.50
2023-02-18T13:49:04.525Z,16.50
2023-02-18T13:51:40.726Z,16.50
2023-02-18T13:54:23.124Z,16.50
2023-02-18T13:56:56.309Z,16.50
2023-02-18T13:59:34.007Z,16.50
2023-02-18T14:02:32.261Z,16.50
2023-02-18T14:05:22.614Z,16.40
2023-02-18T14:08:07.835Z,16.40
2023-02-18T14:10:38.519Z,16.50
2023-02-18T14:13:39.335Z,16.40
2023-02-18T14:16:08.379Z,16.50
2023-02-18T14:18:59.980Z,16.40
2023-02-18T14:21:41.623Z,16.40
2023-02-18T14:24:13.615Z,16.40
2023-02-18T14:26:47.597Z,16.40
2023-02-18T14:29:26.591Z,16.40
2023-02-18T14:32:02.082Z,16.40
2023-02-18T14:35:08.567Z,16.40
2023-02-18T14:37:58.287Z,16.40
2023-02-18T14:40:50.329Z,16.40
2023-02-18T14:43:36.894Z,16.40
2023-02-18T14:46:19.902Z,16.40
2023-02-18T14:49:10.998Z,16.40
2023-02-18T14:51:43.673Z,16.40
2023-02-18T14:54:18.219Z,16.40
2023-02-18T14:57:00.195Z,16.40
2023-02-18T14:59:35.007Z,16.40
2023-02-18T15:02:03.166Z,16.40
2023-02-18T15:04:31.218Z,16.40
2023-02-18T15:07:02.607Z,16.40
2023-02-18T15:09:31.459Z,16.40
2023-02-18T15:12:05.596Z,16.40
2023-02-18T15:14:38.645Z,16.40
2023-02-18T15:17:14.339Z,16.40
2023-02-18T15:19:45.800Z,16.40
2023-02-18T15:22:19.776Z,16.40
2023-02-18T15:24:49.532Z,16.40
2023-02-18T15:27:24.240Z,16.40
2023-02-18T15:29:53.999Z,16.50
2023-02-18T15:32:27.320Z,16.40
2023-02-18T15:35:01.654Z,16.40
2023-02-18T15:37:30.967Z,16.50
2023-02-18T15:39:59.338Z,16.50
2023-02-18T15:42:32.399Z,16.40
2023-02-18T15:45:15.173Z,16.40
2023-02-18T15:47:45.055Z,16.50
2023-02-18T15:50:21.283Z,16.40
2023-02-18T15:52:50.737Z,16.50
2023-02-18T15:55:28.146Z,16.40
2023-02-18T15:57:58.357Z,16.50
2023-02-18T16:00:31.180Z,16.40
2023-02-18T16:03:13.682Z,16.40
2023-02-18T16:05:42.747Z,16.50
2023-02-18T16:08:16.885Z,16.40
2023-02-18T16:10:55.999Z,16.40
2023-02-18T16:13:26.900Z,16.50
2023-02-18T16:15:55.247Z,16.50
2023-02-18T16:18:31.500Z,16.50
2023-02-18T16:21:05.983Z,16.40
2023-02-18T16:23:42.332Z,16.50
2023-02-18T16:26:22.822Z,16.50
2023-02-18T16:28:55.260Z,16.50
2023-02-18T16:31:23.407Z,16.50
2023-02-18T16:33:51.423Z,16.50
2023-02-18T16:36:20.386Z,16.50
2023-02-18T16:38:49.163Z,16.50
2023-02-18T16:41:18.632Z,16.50
2023-02-18T16:43:46.817Z,16.50
2023-02-18T16:46:20.171Z,16.50
2023-02-18T16:48:52.996Z,16.50
2023-02-18T16:51:30.038Z,16.50
2023-02-18T16:53:58.521Z,16.50
2023-02-18T16:56:30.912Z,16.50
2023-02-18T16:58:58.771Z,16.50
2023-02-18T17:01:31.745Z,16.50
2023-02-18T17:04:01.964Z,16.50
2023-02-18T17:06:30.608Z,16.50
2023-02-18T17:08:58.794Z,16.50
2023-02-18T17:11:31.381Z,16.50
2023-02-18T17:13:59.849Z,16.50
2023-02-18T17:16:29.737Z,16.50
2023-02-18T17:18:58.027Z,16.50
2023-02-18T17:21:26.743Z,16.50
2023-02-18T17:23:54.827Z,16.50
2023-02-18T17:26:25.408Z,16.50
2023-02-18T17:28:53.873Z,16.50
2023-02-18T17:31:26.058Z,16.50
2023-02-18T17:33:57.758Z,16.50
2023-02-18T17:36:25.837Z,16.50
2023-02-18T17:38:54.174Z,16.50
2023-02-18T17:41:22.163Z,16.50
2023-02-18T17:43:50.079Z,16.50
2023-02-18T17:46:19.941Z,16.50
2023-02-18T17:48:48.807Z,16.50
2023-02-18T17:51:26.624Z,16.50
2023-02-18T17:53:55.197Z,16.50
2023-02-18T17:56:23.711Z,16.50
2023-02-18T17:58:51.615Z,16.50
2023-02-18T18:01:21.018Z,16.50
2023-02-18T18:03:49.007Z,16.50
2023-02-18T18:06:21.383Z,16.50
2023-02-18T18:08:49.658Z,16.50
2023-02-18T18:11:22.406Z,16.50
2023-02-18T18:13:52.748Z,16.50
2023-02-18T18:16:21.529Z,16.50
2023-02-18T18:18:49.553Z,16.50
2023-02-18T18:21:24.227Z,16.50
2023-02-18T18:23:52.526Z,16.50
2023-02-18T18:26:20.502Z,16.50
2023-02-18T18:28:48.699Z,16.50
2023-02-18T18:31:19.710Z,16.50
2023-02-18T18:33:51.452Z,16.50
2023-02-18T18:36:24.004Z,16.50
2023-02-18T18:38:52.346Z,16.50
2023-02-18T18:41:23.146Z,16.50
2023-02-18T18:43:51.559Z,16.50
2023-02-18T18:46:19.761Z,16.50
2023-02-18T18:48:47.900Z,16.50
2023-02-18T18:51:17.698Z,16.50
2023-02-18T18:53:47.538Z,16.50
2023-02-18T18:56:15.507Z,16.50
2023-02-18T18:58:43.432Z,16.50
2023-02-18T19:01:17.930Z,16.50
2023-02-18T19:03:47.209Z,16.50
2023-02-18T19:06:17.754Z,16.50
2023-02-18T19:08:48.245Z,16.50
2023-02-18T19:11:16.949Z,16.50
2023-02-18T19:13:45.804Z,16.50
2023-02-18T19:16:21.190Z,16.50
2023-02-18T19:18:50.198Z,16.50
2023-02-18T19:21:18.142Z,16.50
2023-02-18T19:23:47.463Z,16.50
2023-02-18T19:26:17.276Z,16.50
2023-02-18T19:28:46.141Z,16.50
2023-02-18T19:31:14.607Z,16.50
2023-02-18T19:33:45.514Z,16.50
2023-02-18T19:36:14.643Z,16.50
2023-02-18T19:38:42.609Z,16.50
2023-02-18T19:41:14.961Z,16.50
2023-02-18T19:43:46.399Z,16.50
2023-02-18T19:46:17.486Z,16.50
2023-02-18T19:48:50.143Z,16.50
2023-02-18T19:51:18.188Z,16.50
2023-02-18T19:53:46.751Z,16.50
2023-02-18T19:56:15.974Z,16.50
2023-02-18T19:58:44.103Z,16.50
2023-02-18T20:01:13.344Z,16.50
2023-02-18T20:03:41.390Z,16.50
2023-02-18T20:06:17.618Z,16.40
2023-02-18T20:08:45.975Z,16.50
2023-02-18T20:11:15.217Z,16.50
2023-02-18T20:13:43.716Z,16.40
2023-02-18T20:16:11.928Z,16.50
2023-02-18T20:18:39.936Z,16.50
2023-02-18T20:21:11.252Z,16.50
2023-02-18T20:23:39.283Z,16.50
2023-02-18T20:26:09.264Z,16.50
2023-02-18T20:28:38.507Z,16.50
2023-02-18T20:31:08.233Z,16.50
2023-02-18T20:33:36.590Z,16.50
2023-02-18T20:36:07.057Z,16.50
2023-02-18T20:38:35.296Z,16.50
2023-02-18T20:41:07.558Z,16.40
2023-02-18T20:43:35.796Z,16.40
2023-02-18T20:46:07.789Z,16.40
2023-02-18T20:48:37.740Z,16.40
2023-02-18T20:51:06.976Z,16.40
2023-02-18T20:53:36.625Z,16.40
2023-02-18T20:56:05.425Z,16.50
2023-02-18T20:58:34.698Z,16.40
2023-02-18T21:01:07.457Z,16.40
2023-02-18T21:03:36.391Z,16.50
2023-02-18T21:06:08.042Z,16.40
2023-02-18T21:08:40.464Z,16.40
2023-02-18T21:11:11.975Z,16.40
2023-02-18T21:13:40.366Z,16.40
2023-02-18T21:16:10.906Z,16.40
2023-02-18T21:18:38.888Z,16.40
2023-02-18T21:21:10.287Z,16.40
2023-02-18T21:23:40.291Z,16.40
2023-02-18T21:26:11.292Z,16.40
2023-02-18T21:28:40.382Z,16.40
2023-02-18T21:31:19.183Z,16.40
2023-02-18T21:33:47.807Z,16.40
2023-02-18T21:36:16.996Z,16.40
2023-02-18T21:38:45.897Z,16.40
2023-02-18T21:41:14.352Z,16.40
2023-02-18T21:43:45.925Z,16.40
2023-02-18T21:46:19.071Z,16.40
2023-02-18T21:49:03.303Z,16.40
2023-02-18T21:51:51.808Z,16.40
2023-02-18T21:54:22.512Z,16.40
2023-02-18T21:56:51.317Z,16.40
2023-02-18T21:59:21.354Z,16.40
2023-02-18T22:01:51.389Z,16.40
2023-02-18T22:04:19.452Z,16.30
2023-02-18T22:06:47.999Z,16.40
2023-02-18T22:09:16.151Z,16.40
2023-02-18T22:11:44.403Z,16.40
2023-02-18T22:14:14.659Z,16.40
2023-02-18T22:16:43.283Z,16.40
2023-02-18T22:19:14.832Z,16.40
2023-02-18T22:21:44.572Z,16.40
2023-02-18T22:24:15.559Z,16.40
2023-02-18T22:26:45.018Z,16.40
2023-02-18T22:29:15.223Z,16.40
2023-02-18T22:31:43.808Z,16.40
2023-02-18T22:34:12.962Z,16.40
2023-02-18T22:36:41.063Z,16.40
2023-02-18T22:39:11.350Z,16.40
2023-02-18T22:41:39.336Z,16.40
2023-02-18T22:44:09.946Z,16.40
2023-02-18T22:46:38.919Z,16.40
2023-02-18T22:49:08.705Z,16.40
2023-02-18T22:51:40.942Z,16.40
2023-02-18T22:54:13.269Z,16.30
2023-02-18T22:56:41.454Z,16.40
2023-02-18T22:59:09.356Z,16.40
2023-02-18T23:01:40.063Z,16.30
2023-02-18T23:04:10.869Z,16.30
2023-02-18T23:06:43.412Z,16.30
2023-02-18T23:09:16.636Z,16.30
2023-02-18T23:11:44.645Z,16.30
2023-02-18T23:14:22.307Z,16.30
2023-02-18T23:17:11.713Z,16.30
2023-02-18T23:19:41.611Z,16.30
2023-02-18T23:22:14.184Z,16.30
2023-02-18T23:24:44.721Z,16.30
2023-02-18T23:27:18.025Z,16.30
2023-02-18T23:29:46.118Z,16.40
2023-02-18T23:32:14.039Z,16.40
2023-02-18T23:34:42.055Z,16.40
2023-02-18T23:37:12.049Z,16.40
2023-02-18T23:39:40.720Z,16.40
2023-02-18T23:42:08.917Z,16.40
2023-02-18T23:44:36.907Z,16.40
2023-02-18T23:47:04.822Z,16.40
2023-02-18T23:49:32.669Z,16.40
2023-02-18T23:52:00.511Z,16.40
2023-02-18T23:54:29.663Z,16.40
2023-02-18T23:56:57.500Z,16.40
2023-02-18T23:59:25.342Z,16.40
